Language: 


Des rapports , des résumés tant et plus, au choix de chacun....


Données Historiques de Météogheer
Journalier Rapport pour Janvier 16, 2018 Unitée:  Impériale    Métrique   Les deux
Suivant Jour »
Journalier Hebdomadaire Mensuel Annuel Sur mesure
  Max: Min: Moyenne:
Température: 47.8 °F 39 °F 44.1 °F
Point de rosée: 44.6 °F 32 °F 38.5 °F
Humidité: 96% 58% 80%
Vent: 27.7mph 0mph 10.4mph
Rafales: 28.4mph - -
Vent- - WSW
Pression: 29.4 in 29.3 in -
Pluie: 0.02 in    
Historical Graphs
 
 
Données tabulaires pour Janvier 16, 2018
Heure Température Point de rosée Pression Vent Vent Rafales Humidité Pluie Taux (Horaire) Conditions
00:01 45 °F 42.8 °F 29.4 in West 8.5 mph 16.1 mph 90% 0 in
00:07 44.8 °F 42.8 °F 29.4 in WSW 10.3 mph 14.3 mph 90% 0 in
00:17 44.6 °F 42.8 °F 29.4 in West 7.8 mph 12.8 mph 90% 0 in
00:25 44.4 °F 42.8 °F 29.4 in WSW 10.5 mph 13 mph 91% 0 in
00:32 44.4 °F 42.8 °F 29.4 in WSW 6 mph 12.8 mph 91% 0 in
00:42 44.4 °F 42.8 °F 29.4 in WSW 7.8 mph 12.1 mph 92% 0 in
00:50 44.6 °F 42.8 °F 29.4 in West 13 mph 15.7 mph 91% 0 in
01:03 45.1 °F 41 °F 29.4 in WSW 9.6 mph 17.7 mph 85% 0 in
01:10 44.8 °F 39.2 °F 29.4 in WSW 10.1 mph 15.7 mph 82% 0 in
01:22 44.6 °F 39.2 °F 29.4 in West 12.1 mph 15.2 mph 82% 0 in
01:27 44.8 °F 39.2 °F 29.4 in WSW 7.6 mph 15.2 mph 83% 0 in
01:34 45.1 °F 41 °F 29.4 in West 19.5 mph 19.9 mph 84% 0 in
01:46 45.1 °F 41 °F 29.4 in WSW 10.7 mph 23 mph 86% 0 in
02:03 44.8 °F 42.8 °F 29.4 in WSW 12.5 mph 16.3 mph 89% 0 in
02:17 44.8 °F 42.8 °F 29.4 in WSW 12.5 mph 16.6 mph 91% 0 in
02:34 44.2 °F 41 °F 29.4 in WSW 10.5 mph 15.4 mph 90% 0 in
02:41 44.2 °F 41 °F 29.4 in WSW 12.3 mph 17 mph 90% 0 in
02:49 44.1 °F 42.8 °F 29.4 in WSW 12.5 mph 17 mph 91% 0 in
02:59 44.2 °F 42.8 °F 29.4 in WSW 10.7 mph 14.8 mph 92% 0 in
03:06 44.2 °F 42.8 °F 29.4 in SW 10.3 mph 15.4 mph 92% 0 in
03:14 43.9 °F 42.8 °F 29.4 in WSW 7.4 mph 14.5 mph 92% 0 in
03:28 43.5 °F 42.8 °F 29.4 in WSW 12.5 mph 12.8 mph 93% 0 in
03:39 43.5 °F 42.8 °F 29.4 in WSW 12.3 mph 12.8 mph 94% 0 in
03:50 43.5 °F 42.8 °F 29.4 in WSW 11.9 mph 13.9 mph 95% 0 in
03:58 43.7 °F 42.8 °F 29.3 in WSW 10.3 mph 13 mph 95% 0 in
04:04 44.1 °F 42.8 °F 29.3 in West 7.8 mph 14.5 mph 96% 0 in
04:11 44.2 °F 42.8 °F 29.4 in WSW 7.8 mph 13 mph 96% 0 in
04:16 44.2 °F 42.8 °F 29.4 in WSW 8.7 mph 13 mph 96% 0 in
04:22 44.2 °F 42.8 °F 29.4 in WSW 9.4 mph 13.2 mph 96% 0 in
04:31 44.4 °F 44.6 °F 29.3 in WSW 7.4 mph 13 mph 96% 0 in
04:48 44.4 °F 44.6 °F 29.3 in WSW 8.7 mph 11 mph 96% 0 in
05:09 44.4 °F 44.6 °F 29.3 in WSW 7.6 mph 8.7 mph 96% 0.01 in
05:22 44.4 °F 44.6 °F 29.3 in WSW 10.5 mph 17.7 mph 96% 0.01 in
05:28 44.4 °F 44.6 °F 29.3 in West 15.2 mph 17.7 mph 96% 0.01 in
05:36 44.4 °F 44.6 °F 29.3 in West 11 mph 17.4 mph 96% 0.01 in
05:50 44.4 °F 44.6 °F 29.3 in WSW 10.7 mph 15.4 mph 96% 0.01 in
06:08 44.4 °F 44.6 °F 29.3 in West 10.7 mph 13.4 mph 96% 0 in
06:36 44.4 °F 44.6 °F 29.3 in WSW 10.5 mph 16.8 mph 96% 0 in
06:42 44.4 °F 44.6 °F 29.3 in West 17.4 mph 17.4 mph 96% 0 in
06:49 44.4 °F 44.6 °F 29.3 in West 8.1 mph 17.4 mph 96% 0 in
07:10 44.4 °F 44.6 °F 29.3 in WSW 13.4 mph 17.7 mph 96% 0 in
07:19 45.9 °F 42.8 °F 29.3 in WSW 12.3 mph 17.4 mph 86% 0 in
07:30 45.7 °F 42.8 °F 29.3 in WSW 10.5 mph 17 mph 85% 0 in
07:44 45.3 °F 41 °F 29.3 in West 11 mph 19.2 mph 84% 0 in
08:01 45.3 °F 41 °F 29.3 in West 9.6 mph 15.9 mph 83% 0 in
08:08 45 °F 41 °F 29.3 in WSW 6.5 mph 14.1 mph 83% 0 in
08:13 44.8 °F 39.2 °F 29.3 in West 14.5 mph 14.8 mph 83% 0 in
08:20 44.8 °F 41 °F 29.3 in West 11 mph 16.3 mph 84% 0 in
08:29 45 °F 41 °F 29.4 in West 13.2 mph 17 mph 83% 0 in
08:35 44.8 °F 39.2 °F 29.4 in WSW 8.5 mph 15.4 mph 83% 0 in
08:45 44.6 °F 39.2 °F 29.4 in West 11 mph 15.7 mph 83% 0 in
08:59 44.1 °F 39.2 °F 29.4 in WSW 10.3 mph 13 mph 84% 0 in
09:08 44.1 °F 39.2 °F 29.4 in West 5.6 mph 12.8 mph 84% 0 in
09:13 43.9 °F 39.2 °F 29.4 in West 8.7 mph 15.4 mph 84% 0 in
09:22 44.2 °F 41 °F 29.4 in WSW 10.7 mph 15.4 mph 85% 0 in
09:28 44.2 °F 41 °F 29.4 in West 8.1 mph 15.4 mph 85% 0 in
09:34 44.1 °F 41 °F 29.4 in WSW 12.1 mph 14.3 mph 85% 0 in
09:48 44.6 °F 41 °F 29.4 in West 13 mph 17.2 mph 84% 0 in
09:57 45 °F 39.2 °F 29.4 in WSW 13 mph 14.8 mph 80% 0 in
10:09 44.8 °F 37.4 °F 29.4 in WSW 17.2 mph 17.7 mph 78% 0 in
10:14 44.8 °F 37.4 °F 29.4 in West 14.1 mph 25.7 mph 76% 0 in
10:26 44.8 °F 37.4 °F 29.4 in WSW 10.7 mph 19.9 mph 76% 0 in
10:31 44.6 °F 37.4 °F 29.4 in West 10.1 mph 17.4 mph 76% 0 in
10:36 44.6 °F 37.4 °F 29.4 in WNW 13 mph 15.9 mph 76% 0 in
10:43 44.8 °F 37.4 °F 29.4 in West 11.9 mph 17.7 mph 75% 0 in
10:51 45 °F 37.4 °F 29.4 in WSW 6.3 mph 18.1 mph 75% 0 in
10:59 45.1 °F 37.4 °F 29.4 in West 9.8 mph 18.6 mph 75% 0 in
11:12 45.3 °F 37.4 °F 29.4 in SSW 10.1 mph 17 mph 73% 0 in
11:20 45.3 °F 37.4 °F 29.4 in WSW 10.3 mph 19.9 mph 72% 0 in
11:29 45.3 °F 37.4 °F 29.4 in West 10.7 mph 18.8 mph 72% 0 in
11:39 45.3 °F 37.4 °F 29.4 in West 7.6 mph 16.6 mph 72% 0 in
11:52 45.3 °F 37.4 °F 29.4 in West 3.8 mph 10.7 mph 72% 0 in
11:57 45.3 °F 37.4 °F 29.4 in West 7.4 mph 12.5 mph 72% 0 in
12:07 47.8 °F 39.2 °F 29.4 in WSW 7.2 mph 10.7 mph 69% 0 in
12:14 47.8 °F 39.2 °F 29.4 in WSW 7.2 mph 10.7 mph 69% 0 in
12:31 47.3 °F 33.8 °F 29.4 in WSW 4.3 mph 17.7 mph 58% 0 in
12:40 47.3 °F 33.8 °F 29.4 in West 17.2 mph 17.2 mph 58% 0 in
12:47 47.3 °F 33.8 °F 29.4 in West 27.7 mph 27.7 mph 58% 0 in
13:04 47.3 °F 33.8 °F 29.4 in WSW 6 mph 26.8 mph 58% 0 in
13:15 47.3 °F 33.8 °F 29.4 in West 11.2 mph 22.4 mph 58% 0 in
13:21 47.3 °F 33.8 °F 29.4 in WNW 13.4 mph 19 mph 58% 0 in
13:31 46.2 °F 35.6 °F 29.4 in West 17.2 mph 17.2 mph 66% 0 in
13:47 46.2 °F 35.6 °F 29.4 in West 12.8 mph 21 mph 66% 0 in
13:54 46.2 °F 35.6 °F 29.4 in WSW 15.7 mph 24.4 mph 66% 0 in
14:02 46.9 °F 37.4 °F 29.4 in West 12.3 mph 25.1 mph 65% 0 in
14:10 46.6 °F 37.4 °F 29.4 in WSW 7.8 mph 22.4 mph 67% 0 in
14:22 47.1 °F 37.4 °F 29.4 in WSW 13 mph 26.6 mph 65% 0 in
14:32 47.3 °F 37.4 °F 29.4 in West 11 mph 23.9 mph 67% 0 in
14:39 47.3 °F 37.4 °F 29.4 in West 15.7 mph 20.8 mph 65% 0 in
14:49 47.3 °F 37.4 °F 29.4 in West 19.9 mph 25.1 mph 67% 0 in
15:09 47.3 °F 35.6 °F 29.4 in West 13.4 mph 25.7 mph 63% 0 in
15:21 47.3 °F 37.4 °F 29.4 in West 8.1 mph 17.7 mph 65% 0 in
15:27 47.3 °F 37.4 °F 29.4 in West 20.6 mph 20.6 mph 64% 0 in
15:35 47.1 °F 35.6 °F 29.4 in West 14.1 mph 22.8 mph 63% 0 in
15:43 46.6 °F 35.6 °F 29.4 in West 13.2 mph 22.8 mph 64% 0 in
16:09 45.5 °F 32 °F 29.4 in West 13 mph 28.4 mph 59% 0 in
16:14 45.3 °F 32 °F 29.4 in West 7.2 mph 17.4 mph 61% 0 in
16:27 44.8 °F 33.8 °F 29.4 in WSW 11 mph 15.4 mph 64% 0 in
16:36 44.1 °F 33.8 °F 29.4 in WSW 8.7 mph 16.1 mph 67% 0 in
16:56 43.3 °F 35.6 °F 29.4 in West 10.5 mph 14.3 mph 72% 0 in
17:12 43.3 °F 35.6 °F 29.4 in West 12.5 mph 14.8 mph 73% 0 in
17:19 43.3 °F 35.6 °F 29.4 in WNW 5.8 mph 17.2 mph 72% 0 in
17:33 43.3 °F 33.8 °F 29.4 in WSW 12.8 mph 14.8 mph 70% 0 in
17:47 43 °F 33.8 °F 29.4 in West 10.7 mph 15.7 mph 70% 0 in
17:54 43 °F 33.8 °F 29.4 in West 9.6 mph 15.7 mph 70% 0 in
18:10 42.8 °F 33.8 °F 29.4 in WSW 12.5 mph 15.4 mph 71% 0 in
18:16 42.8 °F 33.8 °F 29.4 in WSW 10.1 mph 17.4 mph 71% 0 in
18:23 42.6 °F 33.8 °F 29.4 in West 10.3 mph 19.7 mph 71% 0 in
18:38 42.6 °F 33.8 °F 29.4 in WSW 10.3 mph 17.4 mph 70% 0 in
18:45 42.6 °F 33.8 °F 29.4 in West 10.1 mph 17 mph 70% 0 in
18:51 42.6 °F 33.8 °F 29.4 in WSW 11 mph 13.2 mph 70% 0 in
18:58 42.4 °F 33.8 °F 29.4 in West 7.8 mph 13.2 mph 71% 0 in
19:03 42.4 °F 33.8 °F 29.4 in West 8.5 mph 12.1 mph 71% 0 in
19:09 42.6 °F 33.8 °F 29.4 in WSW 10.3 mph 13.4 mph 71% 0 in
19:22 42.4 °F 35.6 °F 29.4 in WSW 9.6 mph 11 mph 72% 0 in
19:28 42.4 °F 35.6 °F 29.4 in West 8.7 mph 13 mph 73% 0 in
19:34 42.4 °F 35.6 °F 29.4 in WSW 9.8 mph 13 mph 73% 0 in
19:40 42.4 °F 35.6 °F 29.4 in West 8.1 mph 12.8 mph 73% 0 in
19:45 42.3 °F 35.6 °F 29.4 in WSW 6 mph 11.2 mph 74% 0 in
19:50 42.1 °F 35.6 °F 29.4 in WSW 5.6 mph 8.7 mph 74% 0 in
19:57 41.9 °F 35.6 °F 29.4 in WSW 6 mph 7.8 mph 75% 0 in
20:16 42.3 °F 35.6 °F 29.4 in WSW 12.3 mph 16.3 mph 77% 0 in
20:28 42.1 °F 35.6 °F 29.4 in WSW 7.2 mph 11.2 mph 78% 0 in
20:34 41.9 °F 35.6 °F 29.4 in WSW 13.6 mph 13.6 mph 78% 0 in
20:41 41.7 °F 35.6 °F 29.4 in WSW 10.5 mph 13.6 mph 78% 0 in
20:47 41.7 °F 35.6 °F 29.4 in WSW 10.5 mph 13 mph 78% 0 in
20:52 41.7 °F 35.6 °F 29.4 in WSW 10.7 mph 15.2 mph 78% 0 in
21:04 41.9 °F 37.4 °F 29.4 in WSW 8.5 mph 16.1 mph 79% 0 in
21:12 41.9 °F 37.4 °F 29.4 in WSW 7.8 mph 13 mph 80% 0 in
21:24 41.9 °F 37.4 °F 29.4 in West 16.8 mph 21.3 mph 84% 0 in
21:37 41.9 °F 37.4 °F 29.4 in WSW 7.6 mph 23.7 mph 84% 0 in
21:45 41.9 °F 37.4 °F 29.4 in WSW 8.7 mph 15.2 mph 84% 0 in
21:56 41.9 °F 37.4 °F 29.4 in WSW 8.7 mph 13.2 mph 84% 0.01 in
22:01 41.9 °F 37.4 °F 29.4 in West 6 mph 13 mph 84% 0.01 in
22:07 41.9 °F 37.4 °F 29.4 in Calm   7.8 mph 84% 0.01 in
22:21 41.9 °F 37.4 °F 29.4 in SW 5.6 mph 7.6 mph 84% 0.01 in
22:35 39 °F 37.4 °F 29.4 in SSW 6.5 mph 7.8 mph 90% 0.01 in
22:48 39 °F 37.4 °F 29.4 in SW 8.5 mph 10.5 mph 90% 0.01 in
23:03 39 °F 37.4 °F 29.4 in SW 5.4 mph 8.7 mph 90% 0 in
23:10 39 °F 37.4 °F 29.4 in WSW 6 mph 10.3 mph 90% 0 in
23:15 39 °F 37.4 °F 29.4 in WSW 6.9 mph 12.1 mph 90% 0 in
23:27 39 °F 37.4 °F 29.4 in West 10.5 mph 15.9 mph 90% 0 in
23:32 39.6 °F 39.2 °F 29.4 in West 11.2 mph 15.9 mph 96% 0 in
23:41 39.6 °F 37.4 °F 29.4 in West 8.9 mph 13.6 mph 94% 0 in
23:55 39.6 °F 37.4 °F 29.4 in West 12.8 mph 15.4 mph 94% 0 in
Données Historique de Météo Turbie

Mise a jour : 20/05/2018 19:54:13
Généré par Cumulus 1.9.4 (1099)